Time;durP1;ratioP1;P1;durP2;ratioP2;P2;SDS_P1;SDS_P2;PMS_P1;PMS_P2;Temp;Humidity;BMP_temperature;BMP_pressure;BME280_temperature;BME280_humidity;BME280_pressure;Samples;Min_cycle;Max_cycle;Signal;HPM_P1;HPM_P2
2022/12/15 00:39:58;;;;;;;36.90;22.33;;;0.50;99.90;;;;;;5069093;28;20466;-83
2022/12/15 00:42:27;;;;;;;36.33;21.53;;;0.50;99.90;;;;;;5075773;28;21021;-83
2022/12/15 00:44:54;;;;;;;30.23;20.67;;;0.40;99.90;;;;;;5064204;28;20454;-83
2022/12/15 00:47:20;;;;;;;32.20;21.93;;;0.50;99.90;;;;;;5064433;28;20519;-83
2022/12/15 01:20:18;;;;;;;41.30;24.70;;;0.40;99.90;;;;;;5066125;28;20485;-83
2022/12/15 01:22:46;;;;;;;29.13;21.10;;;0.40;99.90;;;;;;5067650;28;20491;-83
2022/12/15 01:25:16;;;;;;;31.70;20.90;;;0.40;99.90;;;;;;5067861;28;20591;-83
2022/12/15 01:27:43;;;;;;;34.10;21.13;;;0.40;99.90;;;;;;5071178;28;20486;-83
2022/12/15 01:30:13;;;;;;;30.20;21.13;;;0.40;99.90;;;;;;5066611;28;20505;-83
2022/12/15 01:32:40;;;;;;;30.73;19.80;;;0.40;99.90;;;;;;5068153;28;20447;-83
2022/12/15 01:35:08;;;;;;;32.40;21.17;;;0.30;99.90;;;;;;5066211;28;20504;-83
2022/12/15 01:37:35;;;;;;;39.23;23.77;;;0.40;99.90;;;;;;5067402;28;20859;-83
2022/12/15 01:42:48;;;;;;;31.03;19.30;;;0.40;99.90;;;;;;5070888;28;20787;-82
2022/12/15 01:45:54;;;;;;;30.60;19.93;;;0.40;99.90;;;;;;5063317;28;20502;-83
2022/12/15 01:48:28;;;;;;;35.73;21.30;;;0.40;99.90;;;;;;5069870;28;20860;-83
2022/12/15 01:51:03;;;;;;;34.60;21.77;;;0.40;99.90;;;;;;5068729;28;20491;-82
2022/12/15 01:53:33;;;;;;;30.83;20.60;;;0.30;99.90;;;;;;5073677;28;20525;-83
2022/12/15 01:56:01;;;;;;;32.43;22.70;;;0.30;99.90;;;;;;5074123;28;21817;-83
2022/12/15 01:58:29;;;;;;;28.63;19.90;;;0.30;99.90;;;;;;5068201;28;20480;-83
2022/12/15 02:00:56;;;;;;;28.87;20.67;;;0.20;99.90;;;;;;5071273;28;20497;-83
2022/12/15 02:03:23;;;;;;;33.97;24.40;;;0.20;99.90;;;;;;5071717;28;20908;-84
2022/12/15 02:05:51;;;;;;;31.63;21.57;;;0.30;99.90;;;;;;5072111;28;20487;-84
2022/12/15 02:08:18;;;;;;;27.10;19.50;;;0.20;99.90;;;;;;5069046;28;20494;-84
2022/12/15 02:11:02;;;;;;;31.13;21.13;;;0.30;99.90;;;;;;5072776;28;20929;-84
2022/12/15 02:13:39;;;;;;;28.83;19.17;;;0.20;99.90;;;;;;5074435;28;20556;-84
2022/12/15 02:16:14;;;;;;;28.00;19.07;;;0.20;99.90;;;;;;5074473;28;20486;-84
2022/12/15 02:18:50;;;;;;;26.20;18.57;;;0.20;99.90;;;;;;5078217;28;20487;-83
2022/12/15 02:21:20;;;;;;;30.17;20.07;;;0.20;99.90;;;;;;5079564;28;20525;-84
2022/12/15 02:24:19;;;;;;;29.20;20.33;;;0.20;99.90;;;;;;5069291;28;20487;-84
2022/12/15 02:27:30;;;;;;;28.77;18.77;;;0.20;99.90;;;;;;5068391;28;20544;-84
2022/12/15 02:30:21;;;;;;;34.70;20.77;;;0.20;99.90;;;;;;5069440;28;20824;-84
2022/12/15 02:33:08;;;;;;;30.70;19.50;;;0.20;99.90;;;;;;5070711;28;20451;-84
2022/12/15 02:35:52;;;;;;;28.17;18.17;;;0.20;99.90;;;;;;5077052;28;20563;-84
2022/12/15 02:38:30;;;;;;;32.33;22.03;;;0.20;99.90;;;;;;5070245;28;20538;-84
2022/12/15 02:40:59;;;;;;;33.87;20.93;;;0.20;99.90;;;;;;5074806;28;20468;-83
2022/12/15 02:43:27;;;;;;;33.03;22.53;;;0.20;99.90;;;;;;5069777;28;20460;-84
2022/12/15 02:46:08;;;;;;;28.70;19.63;;;0.30;99.90;;;;;;5068752;28;20580;-83
2022/12/15 02:48:47;;;;;;;31.87;20.00;;;0.30;99.90;;;;;;5069973;28;20487;-84
2022/12/15 02:51:31;;;;;;;30.97;19.47;;;0.40;99.90;;;;;;5070137;28;20533;-83
2022/12/15 02:54:16;;;;;;;30.00;18.00;;;0.30;99.90;;;;;;5069040;28;21024;-83
2022/12/15 02:56:52;;;;;;;28.50;19.43;;;0.20;99.90;;;;;;5071363;28;20946;-84
2022/12/15 02:59:25;;;;;;;30.97;20.67;;;0.20;99.90;;;;;;5071787;28;20495;-84
2022/12/15 03:01:58;;;;;;;31.67;20.33;;;0.20;99.90;;;;;;5067331;28;20459;-83
2022/12/15 03:04:26;;;;;;;28.77;19.87;;;0.20;99.90;;;;;;5068947;28;20582;-84
2022/12/15 03:06:57;;;;;;;33.67;21.37;;;0.30;99.90;;;;;;5072728;28;20455;-83
2022/12/15 03:09:24;;;;;;;29.70;19.20;;;0.20;99.90;;;;;;5072298;28;20541;-83
2022/12/15 03:11:51;;;;;;;29.27;19.93;;;0.20;99.90;;;;;;5073507;28;20950;-83
2022/12/15 03:14:19;;;;;;;33.10;19.93;;;0.20;99.90;;;;;;5065773;28;20504;-83
2022/12/15 03:16:46;;;;;;;35.57;19.77;;;0.10;99.90;;;;;;5068573;28;20496;-83
2022/12/15 03:19:15;;;;;;;25.90;19.17;;;0.10;99.90;;;;;;5066960;28;21040;-83
2022/12/15 03:21:42;;;;;;;29.33;18.20;;;0.10;99.90;;;;;;5067224;28;20828;-83
2022/12/15 03:24:09;;;;;;;30.70;21.30;;;0.10;99.90;;;;;;5077283;28;20520;-83
2022/12/15 03:26:36;;;;;;;27.50;21.47;;;0.10;99.90;;;;;;5067653;28;20479;-83
2022/12/15 03:29:03;;;;;;;34.30;20.47;;;0.10;99.90;;;;;;5064597;28;20872;-83
2022/12/15 03:31:30;;;;;;;27.07;19.47;;;0.10;99.90;;;;;;5070566;28;20531;-83
2022/12/15 03:33:57;;;;;;;31.57;22.13;;;0.10;99.90;;;;;;5066586;28;20493;-83
2022/12/15 03:36:25;;;;;;;32.90;21.40;;;0.10;99.90;;;;;;5071396;28;20943;-83
2022/12/15 03:38:52;;;;;;;33.37;21.70;;;0.10;99.90;;;;;;5066642;28;20484;-83
2022/12/15 03:41:19;;;;;;;28.73;19.57;;;0.10;99.90;;;;;;5070696;28;20479;-83
2022/12/15 03:43:46;;;;;;;29.57;19.13;;;0.20;99.90;;;;;;5067994;28;20535;-83
2022/12/15 03:46:13;;;;;;;28.27;19.80;;;0.10;99.90;;;;;;5069210;28;20494;-83
2022/12/15 03:48:40;;;;;;;27.87;20.40;;;0.20;99.90;;;;;;5068216;28;20869;-83
2022/12/15 03:51:07;;;;;;;29.10;21.53;;;0.20;99.90;;;;;;5065132;28;20494;-83
2022/12/15 03:53:35;;;;;;;28.23;20.20;;;0.20;99.90;;;;;;5069277;28;20865;-83
2022/12/15 03:56:02;;;;;;;35.50;21.50;;;0.20;99.90;;;;;;5070052;28;20495;-82
2022/12/15 03:58:29;;;;;;;28.60;19.63;;;0.20;99.90;;;;;;5069646;28;20853;-82
2022/12/15 04:00:56;;;;;;;31.67;21.70;;;0.20;99.90;;;;;;5068019;28;20711;-82
2022/12/15 04:03:24;;;;;;;27.10;19.70;;;0.20;99.90;;;;;;5070916;28;20553;-83
2022/12/15 04:05:53;;;;;;;33.60;21.20;;;0.30;99.90;;;;;;5067509;28;20958;-83
2022/12/15 04:08:25;;;;;;;31.67;22.03;;;0.30;99.90;;;;;;5066380;28;20483;-83
2022/12/15 04:10:53;;;;;;;31.77;21.70;;;0.30;99.90;;;;;;5068933;28;20451;-83
2022/12/15 04:13:20;;;;;;;30.33;20.63;;;0.30;99.90;;;;;;5069268;28;20479;-83
2022/12/15 04:15:47;;;;;;;27.30;18.57;;;0.20;99.90;;;;;;5070907;28;20490;-83
2022/12/15 04:18:14;;;;;;;29.40;19.10;;;0.20;99.90;;;;;;5064645;28;20459;-83
2022/12/15 04:20:41;;;;;;;33.10;22.50;;;0.10;99.90;;;;;;5067797;28;20494;-83
2022/12/15 04:23:08;;;;;;;30.03;21.80;;;0.20;99.90;;;;;;5065636;28;20532;-83
2022/12/15 05:31:50;;;;;;;33.70;21.67;;;0.00;99.90;;;;;;5066766;28;20577;-84
2022/12/15 05:34:20;;;;;;;32.70;21.98;;;0.10;99.90;;;;;;5074471;28;20340;-84
2022/12/15 05:36:47;;;;;;;47.67;29.30;;;0.10;99.90;;;;;;5065407;28;20289;-84
2022/12/15 05:39:14;;;;;;;37.47;24.73;;;0.20;99.90;;;;;;5065014;28;20816;-84
2022/12/15 05:41:41;;;;;;;40.87;25.80;;;0.10;99.90;;;;;;5072791;28;20463;-84
2022/12/15 05:44:09;;;;;;;34.60;21.30;;;0.10;99.90;;;;;;5065408;28;20462;-89
2022/12/15 05:46:36;;;;;;;36.08;22.88;;;0.10;99.90;;;;;;5071888;28;20236;-85
2022/12/15 05:49:04;;;;;;;32.33;20.93;;;0.10;99.90;;;;;;5067067;28;20497;-85
2022/12/15 05:51:33;;;;;;;32.03;23.65;;;0.20;99.90;;;;;;5064411;28;20470;-84
2022/12/15 05:54:00;;;;;;;32.67;24.45;;;0.20;99.90;;;;;;5066345;28;20232;-85
2022/12/15 05:56:28;;;;;;;39.37;26.13;;;0.10;99.90;;;;;;5069995;28;20248;-85
2022/12/15 05:58:56;;;;;;;42.63;28.87;;;0.00;99.90;;;;;;5064046;28;20465;-85
2022/12/15 06:01:24;;;;;;;34.80;22.73;;;0.00;99.90;;;;;;5068139;28;21149;-85
2022/12/15 06:03:51;;;;;;;35.83;21.83;;;0.00;99.90;;;;;;5069089;28;20943;-85
2022/12/15 06:06:19;;;;;;;34.33;23.97;;;0.00;99.90;;;;;;5066235;28;20492;-84
2022/12/15 06:08:47;;;;;;;49.30;29.97;;;0.10;99.90;;;;;;5068802;28;20525;-87
2022/12/15 06:11:17;;;;;;;41.87;26.13;;;0.00;99.90;;;;;;5062673;28;20494;-85
2022/12/15 06:13:44;;;;;;;38.73;28.30;;;0.00;99.90;;;;;;5079920;28;20439;-84
2022/12/15 06:16:13;;;;;;;41.10;28.60;;;0.00;99.90;;;;;;5064498;28;20468;-85
2022/12/15 06:18:42;;;;;;;33.50;24.23;;;0.00;99.90;;;;;;5072105;28;20547;-85
2022/12/15 06:21:11;;;;;;;35.20;25.57;;;0.00;99.90;;;;;;5066292;28;20484;-86
2022/12/15 06:23:39;;;;;;;37.90;24.30;;;0.00;99.90;;;;;;5063317;28;20470;-86
2022/12/15 06:26:13;;;;;;;41.80;25.10;;;0.00;99.90;;;;;;5068806;28;20513;-84
2022/12/15 06:28:40;;;;;;;38.30;26.37;;;0.00;99.90;;;;;;5065102;28;20487;-85
2022/12/15 06:31:10;;;;;;;33.37;22.30;;;0.10;99.90;;;;;;5064236;28;20552;-84
2022/12/15 06:33:37;;;;;;;32.00;21.60;;;0.20;99.90;;;;;;5078162;28;20485;-85
2022/12/15 06:36:07;;;;;;;30.27;20.70;;;0.20;99.90;;;;;;5075143;28;20547;-85
2022/12/15 06:38:34;;;;;;;31.30;22.33;;;0.20;99.90;;;;;;5067176;28;20520;-85
2022/12/15 06:41:03;;;;;;;37.33;21.20;;;0.20;99.90;;;;;;5076600;28;20474;-85
2022/12/15 06:43:32;;;;;;;32.93;23.50;;;0.20;99.90;;;;;;5067100;28;20473;-85
2022/12/15 06:45:59;;;;;;;29.17;20.53;;;0.10;99.90;;;;;;5072614;28;20463;-85
2022/12/15 06:48:26;;;;;;;39.13;25.00;;;0.20;99.90;;;;;;5064911;28;20772;-85
2022/12/15 06:50:54;;;;;;;31.87;22.13;;;0.20;99.90;;;;;;5078838;28;20451;-85
2022/12/15 06:53:23;;;;;;;32.10;22.33;;;0.30;99.90;;;;;;5065975;28;21184;-85
2022/12/15 06:55:51;;;;;;;36.67;24.87;;;0.30;99.90;;;;;;5072273;28;20466;-85
2022/12/15 06:58:18;;;;;;;36.20;22.70;;;0.30;99.90;;;;;;5065700;28;20451;-85
2022/12/15 07:00:46;;;;;;;49.00;27.70;;;0.30;99.90;;;;;;5066096;28;20775;-85
2022/12/15 07:03:15;;;;;;;37.60;24.07;;;0.40;99.90;;;;;;5069646;28;20497;-85
2022/12/15 07:05:43;;;;;;;31.97;22.47;;;0.30;99.90;;;;;;5072286;28;20459;-85
2022/12/15 07:08:11;;;;;;;50.37;31.27;;;0.30;99.90;;;;;;5061881;28;20455;-86
2022/12/15 07:10:40;;;;;;;45.20;25.47;;;0.20;99.90;;;;;;5069245;28;20537;-86
2022/12/15 07:13:07;;;;;;;102.17;46.07;;;0.30;99.90;;;;;;5067674;28;20466;-85
2022/12/15 07:15:34;;;;;;;46.50;26.93;;;0.30;99.90;;;;;;5069793;28;20560;-86
2022/12/15 07:18:02;;;;;;;44.83;24.70;;;0.30;99.90;;;;;;5068145;28;21011;-86
2022/12/15 07:20:29;;;;;;;39.97;23.97;;;0.40;99.90;;;;;;5066393;28;20467;-86
2022/12/15 07:22:56;;;;;;;50.03;30.10;;;0.30;99.90;;;;;;5075245;28;20907;-86
2022/12/15 07:25:23;;;;;;;39.43;22.20;;;0.30;99.90;;;;;;5066307;28;20907;-86
2022/12/15 07:27:50;;;;;;;34.17;22.00;;;0.40;99.90;;;;;;5068096;28;20471;-86
2022/12/15 07:30:17;;;;;;;37.20;23.77;;;0.40;99.90;;;;;;5064686;28;20553;-86
2022/12/15 07:32:44;;;;;;;39.63;25.10;;;0.40;99.90;;;;;;5068601;28;20556;-86
2022/12/15 07:35:13;;;;;;;34.13;22.43;;;0.50;99.90;;;;;;5064840;28;20485;-85
2022/12/15 07:37:40;;;;;;;36.07;23.43;;;0.40;99.90;;;;;;5065928;28;20549;-85
2022/12/15 07:40:09;;;;;;;32.33;22.30;;;0.50;99.90;;;;;;5065431;28;20564;-86
2022/12/15 07:42:36;;;;;;;36.13;24.03;;;0.70;99.90;;;;;;5070814;28;20468;-86
2022/12/15 07:45:04;;;;;;;37.07;26.60;;;0.90;99.90;;;;;;5066056;28;20547;-86
2022/12/15 07:47:31;;;;;;;32.07;21.50;;;1.00;99.90;;;;;;5064361;28;20467;-85
2022/12/15 07:49:58;;;;;;;36.80;23.20;;;1.10;99.90;;;;;;5065847;28;20515;-86
2022/12/15 07:52:27;;;;;;;33.33;22.30;;;1.00;99.90;;;;;;5065347;28;20494;-86
2022/12/15 07:54:53;;;;;;;33.20;21.83;;;0.90;99.90;;;;;;5066807;28;21776;-85
2022/12/15 07:57:21;;;;;;;34.63;24.40;;;0.90;99.90;;;;;;5064922;28;20979;-86
2022/12/15 07:59:48;;;;;;;36.50;23.93;;;1.10;99.90;;;;;;5070094;28;20487;-85
2022/12/15 08:02:15;;;;;;;42.57;26.57;;;1.10;99.90;;;;;;5066194;28;20507;-86
2022/12/15 08:04:42;;;;;;;31.67;21.00;;;1.10;99.90;;;;;;5067967;28;20549;-86
2022/12/15 08:07:10;;;;;;;36.70;23.27;;;1.30;99.90;;;;;;5065373;28;20501;-86
2022/12/15 08:09:38;;;;;;;32.03;22.87;;;1.30;99.90;;;;;;5068274;28;20527;-86
2022/12/15 08:12:05;;;;;;;35.00;24.07;;;1.50;99.90;;;;;;5069289;28;20490;-86
2022/12/15 08:14:34;;;;;;;33.60;23.57;;;1.30;99.90;;;;;;5066874;28;20525;-86
2022/12/15 08:17:00;;;;;;;36.73;23.13;;;1.40;99.90;;;;;;5066830;28;20553;-86
2022/12/15 08:19:29;;;;;;;35.33;24.20;;;1.40;99.90;;;;;;5066289;28;20651;-86
2022/12/15 08:21:57;;;;;;;32.27;21.60;;;1.40;99.90;;;;;;5065621;28;20485;-86
2022/12/15 08:24:24;;;;;;;29.80;21.07;;;1.60;99.90;;;;;;5066051;28;21003;-86
2022/12/15 08:26:53;;;;;;;32.67;21.33;;;1.70;99.90;;;;;;5068945;28;20986;-86
2022/12/15 08:29:20;;;;;;;29.07;20.67;;;1.70;99.90;;;;;;5067060;28;20586;-86
2022/12/15 08:31:47;;;;;;;28.43;19.90;;;1.60;99.90;;;;;;5065988;28;20923;-86
2022/12/15 08:34:14;;;;;;;31.80;21.23;;;1.60;99.90;;;;;;5067697;28;20948;-86
2022/12/15 08:36:40;;;;;;;30.13;22.27;;;1.70;99.90;;;;;;5065344;28;20476;-86
2022/12/15 08:39:08;;;;;;;30.50;20.07;;;1.90;99.90;;;;;;5067981;28;20845;-85
2022/12/15 08:41:35;;;;;;;58.90;31.03;;;2.00;99.90;;;;;;5065544;28;21065;-85
2022/12/15 08:44:04;;;;;;;30.53;20.43;;;1.90;99.90;;;;;;5066381;28;21085;-85
2022/12/15 08:46:32;;;;;;;25.20;18.73;;;2.30;99.90;;;;;;5064164;28;20492;-85
2022/12/15 08:49:00;;;;;;;29.70;20.67;;;2.40;99.90;;;;;;5068495;28;21048;-85
2022/12/15 08:51:29;;;;;;;25.80;20.07;;;2.40;99.90;;;;;;5071896;28;20487;-85
2022/12/15 08:53:56;;;;;;;29.10;20.30;;;2.50;99.90;;;;;;5067413;28;21279;-84
2022/12/15 08:56:25;;;;;;;29.10;20.83;;;2.50;99.90;;;;;;5061614;28;20462;-83
2022/12/15 08:58:56;;;;;;;28.60;21.13;;;2.70;99.90;;;;;;5066251;28;20951;-83
2022/12/15 09:01:25;;;;;;;30.93;19.70;;;2.60;99.90;;;;;;5067748;28;20556;-86
2022/12/15 09:03:53;;;;;;;25.33;18.13;;;3.10;99.90;;;;;;5068352;28;20982;-83
2022/12/15 09:06:23;;;;;;;24.30;19.20;;;3.00;99.90;;;;;;5061625;28;20521;-83
2022/12/15 09:08:50;;;;;;;26.30;19.33;;;3.10;99.90;;;;;;5068913;28;20463;-83
2022/12/15 09:11:17;;;;;;;26.77;18.70;;;3.50;99.90;;;;;;5068761;28;20462;-83
2022/12/15 09:13:44;;;;;;;24.13;17.60;;;3.60;99.90;;;;;;5065880;28;20539;-83
2022/12/15 09:16:14;;;;;;;22.93;17.00;;;3.60;99.90;;;;;;5062538;28;20544;-82
2022/12/15 09:18:44;;;;;;;21.50;17.30;;;3.20;99.90;;;;;;5068263;28;20487;-82
2022/12/15 09:21:12;;;;;;;20.03;15.73;;;3.40;99.90;;;;;;5067819;28;20470;-82
2022/12/15 09:23:40;;;;;;;23.17;18.20;;;3.50;99.90;;;;;;5065422;28;20460;-82
2022/12/15 09:26:09;;;;;;;24.63;17.73;;;3.50;99.90;;;;;;5069652;28;20475;-83
2022/12/15 09:28:37;;;;;;;27.13;17.60;;;3.30;99.90;;;;;;5068468;28;20967;-82
2022/12/15 09:31:05;;;;;;;23.60;21.10;;;3.30;99.90;;;;;;5063928;28;20496;-82
2022/12/15 09:33:32;;;;;;;23.27;16.13;;;3.00;99.90;;;;;;5066278;28;21209;-83
2022/12/15 09:36:01;;;;;;;21.90;14.57;;;3.10;99.90;;;;;;5067269;28;20856;-86
2022/12/15 09:38:28;;;;;;;23.83;16.40;;;3.10;99.90;;;;;;5072143;28;20474;-84
2022/12/15 09:40:55;;;;;;;19.20;15.40;;;2.80;99.90;;;;;;5067094;28;20538;-83
2022/12/15 09:43:24;;;;;;;22.70;16.37;;;2.40;99.90;;;;;;5071053;28;20481;-84
2022/12/15 09:46:01;;;;;;;27.40;19.13;;;2.10;99.90;;;;;;5065930;28;20491;-85
2022/12/15 09:48:36;;;;;;;30.53;19.50;;;1.80;99.90;;;;;;5064380;28;22012;-86
2022/12/15 09:51:08;;;;;;;30.70;22.33;;;1.70;99.90;;;;;;5065554;28;20572;-83
2022/12/15 09:53:36;;;;;;;29.90;20.40;;;1.60;99.90;;;;;;5073768;28;20467;-85
2022/12/15 09:56:07;;;;;;;25.00;18.10;;;1.40;99.90;;;;;;5065645;28;20448;-82
2022/12/15 09:58:45;;;;;;;28.47;18.27;;;1.60;99.90;;;;;;5066228;28;20452;-85
2022/12/15 10:01:23;;;;;;;24.87;18.20;;;1.50;99.90;;;;;;5076771;28;20501;-83
2022/12/15 10:03:59;;;;;;;27.27;20.83;;;1.50;99.90;;;;;;5066767;28;20513;-82
2022/12/15 10:06:33;;;;;;;27.03;19.40;;;2.20;99.90;;;;;;5083154;28;20504;-83
2022/12/15 10:09:10;;;;;;;21.67;17.77;;;2.40;99.90;;;;;;5080811;28;20459;-83
2022/12/15 10:11:46;;;;;;;26.20;18.80;;;2.40;99.90;;;;;;5085203;28;20462;-83
2022/12/15 10:14:23;;;;;;;24.13;17.67;;;2.30;99.90;;;;;;5086559;28;20442;-83
2022/12/15 10:17:02;;;;;;;26.23;18.53;;;2.40;99.90;;;;;;5070042;28;20463;-82
2022/12/15 10:19:36;;;;;;;29.03;20.67;;;2.10;99.90;;;;;;5084887;28;20636;-83
2022/12/15 10:22:04;;;;;;;26.77;19.50;;;2.20;99.90;;;;;;5085641;28;20455;-83
2022/12/15 10:24:33;;;;;;;25.53;15.90;;;2.50;99.90;;;;;;5085913;28;20478;-83
2022/12/15 10:27:15;;;;;;;30.50;19.20;;;2.60;99.90;;;;;;5077138;28;21033;-83
2022/12/15 10:29:45;;;;;;;24.73;17.93;;;2.40;99.90;;;;;;5085872;28;20577;-82
2022/12/15 10:32:18;;;;;;;27.90;17.90;;;2.20;99.90;;;;;;5088764;28;20914;-82
2022/12/15 10:34:45;;;;;;;25.17;17.50;;;2.20;99.90;;;;;;5087069;28;20497;-83
2022/12/15 10:37:18;;;;;;;30.77;20.70;;;2.10;99.90;;;;;;5087200;28;20520;-83
2022/12/15 10:39:48;;;;;;;27.53;19.70;;;2.00;99.90;;;;;;5087531;28;20462;-85
2022/12/15 10:42:19;;;;;;;32.93;19.90;;;1.60;99.90;;;;;;5081973;28;20517;-86
2022/12/15 10:44:49;;;;;;;34.30;21.50;;;1.50;99.90;;;;;;5085203;28;20935;-86
2022/12/15 10:47:21;;;;;;;32.70;20.20;;;1.70;99.90;;;;;;5084613;28;20562;-86
2022/12/15 10:49:49;;;;;;;29.47;19.77;;;1.80;99.90;;;;;;5088292;28;20568;-87
2022/12/15 10:52:22;;;;;;;36.90;23.33;;;1.90;99.90;;;;;;5075101;28;20504;-85
2022/12/15 10:54:51;;;;;;;38.20;23.20;;;2.10;99.90;;;;;;5078771;28;20530;-87
2022/12/15 10:57:22;;;;;;;42.43;25.87;;;1.90;99.90;;;;;;5083278;28;20910;-87
2022/12/15 10:59:49;;;;;;;33.57;22.40;;;1.60;99.90;;;;;;5080988;28;20465;-87
2022/12/15 11:02:32;;;;;;;35.47;21.23;;;1.70;99.90;;;;;;5087589;28;20455;-84
2022/12/15 11:05:01;;;;;;;39.13;29.83;;;1.80;99.90;;;;;;5085293;28;20476;-87
2022/12/15 11:07:35;;;;;;;44.80;30.63;;;1.70;99.90;;;;;;5075578;28;20467;-87
2022/12/15 11:10:14;;;;;;;40.60;25.93;;;1.70;99.90;;;;;;5088146;28;20486;-87
2022/12/15 11:12:50;;;;;;;33.50;22.13;;;1.70;99.90;;;;;;5078890;28;20469;-87
2022/12/15 11:15:42;;;;;;;35.37;26.30;;;1.40;99.90;;;;;;5068378;28;20455;-87
2022/12/15 11:18:32;;;;;;;38.73;23.30;;;1.50;99.90;;;;;;5072259;28;20786;-87
2022/12/15 11:21:04;;;;;;;31.13;21.57;;;1.50;99.90;;;;;;5079130;28;20458;-87
2022/12/15 11:23:54;;;;;;;37.90;22.63;;;1.60;99.90;;;;;;5077235;28;20467;-87
2022/12/15 11:26:43;;;;;;;30.73;19.73;;;1.50;99.90;;;;;;5067177;28;20562;-87
2022/12/15 11:29:18;;;;;;;43.17;27.10;;;1.60;99.90;;;;;;5067984;28;20519;-86
2022/12/15 11:31:46;;;;;;;35.77;24.50;;;1.70;99.90;;;;;;5072955;28;20500;-86
2022/12/15 11:34:14;;;;;;;43.83;25.77;;;1.70;99.90;;;;;;5067969;28;20554;-86
2022/12/15 11:36:59;;;;;;;43.20;28.90;;;1.70;99.90;;;;;;5066112;28;20476;-86
2022/12/15 11:39:41;;;;;;;33.07;23.07;;;1.60;99.90;;;;;;5069090;28;20463;-85
2022/12/15 11:42:17;;;;;;;41.23;25.10;;;1.50;99.90;;;;;;5077193;28;20451;-84
2022/12/15 11:44:55;;;;;;;40.00;24.83;;;1.50;99.90;;;;;;5067887;28;20536;-83
2022/12/15 11:47:31;;;;;;;35.60;24.00;;;1.70;99.90;;;;;;5066121;28;20556;-84
2022/12/15 11:50:24;;;;;;;40.50;25.73;;;1.80;99.90;;;;;;5068586;28;20995;-85
2022/12/15 11:53:12;;;;;;;45.90;24.60;;;1.90;99.90;;;;;;5069923;28;20699;-84
2022/12/15 11:55:49;;;;;;;37.93;25.70;;;2.10;99.90;;;;;;5073899;28;20589;-84
2022/12/15 11:58:43;;;;;;;42.23;25.67;;;1.90;99.90;;;;;;5067791;28;20458;-84
2022/12/15 12:01:22;;;;;;;49.07;35.10;;;2.00;99.90;;;;;;5074198;28;20451;-84
2022/12/15 12:03:57;;;;;;;49.40;33.20;;;2.10;99.90;;;;;;5074274;28;20959;-85
2022/12/15 12:06:32;;;;;;;50.30;34.60;;;2.10;99.90;;;;;;5085655;28;20855;-85
2022/12/15 12:09:12;;;;;;;58.60;43.57;;;2.10;99.90;;;;;;5076380;28;20491;-84
2022/12/15 12:11:46;;;;;;;48.63;32.53;;;2.20;99.90;;;;;;5078140;28;21059;-84
2022/12/15 12:14:25;;;;;;;42.43;30.50;;;2.00;99.90;;;;;;5078022;28;20465;-87
2022/12/15 12:17:01;;;;;;;50.57;34.80;;;1.90;99.90;;;;;;5070151;28;21024;-83
2022/12/15 12:19:32;;;;;;;48.70;32.70;;;1.80;99.90;;;;;;5081491;28;20443;-85
2022/12/15 12:22:04;;;;;;;44.30;29.70;;;1.90;99.90;;;;;;5078582;28;20479;-85
2022/12/15 12:24:36;;;;;;;60.00;37.87;;;2.00;99.90;;;;;;5078642;28;20954;-84
2022/12/15 12:27:12;;;;;;;58.30;35.27;;;1.90;99.90;;;;;;5087240;28;20478;-84
2022/12/15 12:29:45;;;;;;;52.73;31.57;;;1.80;99.90;;;;;;5074738;28;20696;-84
2022/12/15 12:32:19;;;;;;;52.60;31.23;;;1.80;99.90;;;;;;5077218;28;20509;-84
2022/12/15 12:34:56;;;;;;;58.90;33.00;;;1.80;99.90;;;;;;5080062;28;20466;-84
2022/12/15 12:37:27;;;;;;;64.33;33.13;;;1.70;99.90;;;;;;5079887;28;20478;-84
2022/12/15 12:40:00;;;;;;;55.20;30.73;;;1.70;99.90;;;;;;5073025;28;20924;-84
2022/12/15 12:42:35;;;;;;;64.03;36.43;;;1.70;99.90;;;;;;5073205;28;20442;-84
2022/12/15 12:45:03;;;;;;;50.93;30.23;;;1.80;99.90;;;;;;5071253;28;20526;-84
2022/12/15 12:47:35;;;;;;;51.03;28.43;;;1.70;99.90;;;;;;5065062;28;20486;-86
2022/12/15 12:50:06;;;;;;;47.80;29.00;;;1.60;99.90;;;;;;5068156;28;20511;-85
2022/12/15 12:52:36;;;;;;;49.77;30.63;;;1.40;99.90;;;;;;5077062;28;20512;-83
2022/12/15 12:55:24;;;;;;;51.97;28.20;;;1.40;99.90;;;;;;5076619;28;20467;-83
2022/12/15 12:57:54;;;;;;;51.53;26.73;;;1.60;99.90;;;;;;5070908;28;20939;-83
2022/12/15 13:00:24;;;;;;;46.70;26.17;;;1.40;99.90;;;;;;5065852;28;20523;-83
2022/12/15 13:03:15;;;;;;;55.30;27.77;;;1.50;99.90;;;;;;5074415;28;20471;-83
2022/12/15 13:05:43;;;;;;;48.73;24.97;;;1.50;99.90;;;;;;5077750;28;20816;-82
2022/12/15 13:08:49;;;;;;;48.43;27.77;;;1.60;99.90;;;;;;5083208;28;20817;-85
2022/12/15 13:11:54;;;;;;;53.30;29.10;;;1.60;99.90;;;;;;5079780;28;20500;-85
2022/12/15 13:14:44;;;;;;;82.07;43.97;;;1.60;99.90;;;;;;5069268;28;20686;-85
2022/12/15 13:17:17;;;;;;;81.00;42.40;;;1.70;99.90;;;;;;5077169;28;20470;-85
2022/12/15 13:20:16;;;;;;;47.40;28.13;;;1.80;99.90;;;;;;5069955;28;20980;-85
2022/12/15 13:22:43;;;;;;;46.70;25.50;;;1.60;99.90;;;;;;5077530;28;20490;-85
2022/12/15 13:25:43;;;;;;;46.53;27.00;;;1.50;99.90;;;;;;5073813;28;20652;-85
2022/12/15 13:28:27;;;;;;;38.13;22.90;;;1.70;99.90;;;;;;5065051;28;20808;-85
2022/12/15 13:31:27;;;;;;;42.50;21.53;;;1.60;99.90;;;;;;5065433;28;20487;-84
2022/12/15 13:34:15;;;;;;;44.50;23.00;;;1.40;99.90;;;;;;5067541;28;21157;-85
2022/12/15 13:36:53;;;;;;;46.10;23.73;;;1.30;99.90;;;;;;5064258;28;21095;-85
2022/12/15 13:39:56;;;;;;;43.20;23.20;;;1.30;99.90;;;;;;5066422;28;20636;-85
2022/12/15 13:42:38;;;;;;;38.03;23.10;;;1.20;99.90;;;;;;5043658;28;20518;-85
2022/12/15 13:45:26;;;;;;;43.73;25.97;;;1.10;99.90;;;;;;5066634;28;21033;-84
2022/12/15 13:47:56;;;;;;;33.90;21.33;;;1.10;99.90;;;;;;5065334;28;20452;-84
2022/12/15 13:50:41;;;;;;;43.77;28.57;;;1.10;99.90;;;;;;5066711;28;20514;-85
2022/12/15 13:53:18;;;;;;;43.77;26.60;;;1.00;99.90;;;;;;5066944;28;20444;-85
2022/12/15 13:56:03;;;;;;;39.80;25.40;;;0.90;99.90;;;;;;5067535;28;21208;-84
2022/12/15 13:58:38;;;;;;;37.43;22.90;;;0.90;99.90;;;;;;5075396;28;20471;-84
2022/12/15 14:01:19;;;;;;;45.50;25.67;;;0.70;99.90;;;;;;5073241;28;20522;-85
2022/12/15 14:03:59;;;;;;;47.10;25.40;;;0.70;99.90;;;;;;5065769;28;20915;-85
2022/12/15 14:06:31;;;;;;;34.00;21.30;;;0.60;99.90;;;;;;5064490;28;20925;-83
2022/12/15 14:09:05;;;;;;;33.00;21.92;;;0.50;99.90;;;;;;5068766;28;20486;-84
2022/12/15 14:11:36;;;;;;;48.25;25.27;;;0.50;99.90;;;;;;5071221;28;20223;-84
2022/12/15 14:14:04;;;;;;;36.20;21.55;;;0.50;99.90;;;;;;5066966;28;20294;-84
2022/12/15 14:16:34;;;;;;;42.70;23.00;;;0.40;99.90;;;;;;5065178;28;20201;-84
2022/12/15 14:19:14;;;;;;;47.03;23.65;;;0.40;99.90;;;;;;5069246;28;20513;-85
2022/12/15 14:21:48;;;;;;;50.83;27.90;;;0.50;99.90;;;;;;5068279;28;20290;-86
2022/12/15 14:24:23;;;;;;;42.72;22.58;;;0.60;99.90;;;;;;5070413;28;20493;-85
2022/12/15 14:26:50;;;;;;;43.63;25.13;;;0.60;99.90;;;;;;5065549;28;20210;-85
2022/12/15 14:29:17;;;;;;;40.25;24.05;;;0.50;99.90;;;;;;5076169;28;20254;-89
2022/12/15 14:31:48;;;;;;;40.63;22.80;;;0.40;99.90;;;;;;5069267;28;20959;-88
2022/12/15 14:34:24;;;;;;;38.35;23.52;;;0.40;99.90;;;;;;5072194;28;20494;-88
2022/12/15 14:36:52;;;;;;;42.47;24.58;;;0.40;99.90;;;;;;5074675;28;20253;-87
2022/12/15 14:39:24;;;;;;;43.60;24.90;;;0.30;99.90;;;;;;5072344;28;20239;-87
2022/12/15 14:41:53;;;;;;;40.70;23.73;;;0.30;99.90;;;;;;5071043;28;20486;-87
2022/12/15 14:44:28;;;;;;;37.23;21.80;;;0.30;99.90;;;;;;5065429;28;20516;-86
2022/12/15 14:46:55;;;;;;;44.63;23.53;;;0.20;99.90;;;;;;5065245;28;20465;-86
2022/12/15 14:49:26;;;;;;;46.33;23.80;;;0.20;99.90;;;;;;5074293;28;20450;-86
2022/12/15 14:51:58;;;;;;;34.40;20.20;;;0.20;99.90;;;;;;5068705;28;20529;-85
2022/12/15 14:54:32;;;;;;;39.47;22.25;;;0.20;99.90;;;;;;5076130;28;20452;-86
2022/12/15 14:57:00;;;;;;;37.90;22.35;;;0.10;99.90;;;;;;5071642;28;20325;-85
2022/12/15 14:59:33;;;;;;;41.85;26.27;;;0.10;99.90;;;;;;5068453;28;20557;-86
2022/12/15 15:02:11;;;;;;;44.72;23.80;;;0.10;99.90;;;;;;5082271;28;20205;-85
2022/12/15 15:04:40;;;;;;;39.93;23.67;;;0.10;99.90;;;;;;5066523;28;20207;-85
2022/12/15 15:07:17;;;;;;;41.88;24.10;;;0.10;99.90;;;;;;5076118;28;20454;-85
2022/12/15 15:09:45;;;;;;;48.25;25.75;;;0.10;99.90;;;;;;5083423;28;20211;-85
2022/12/15 15:12:17;;;;;;;44.42;24.52;;;0.10;99.90;;;;;;5085739;28;20683;-85
2022/12/15 15:14:45;;;;;;;46.57;24.17;;;0.10;99.90;;;;;;5072095;28;20200;-86
2022/12/15 15:17:25;;;;;;;42.03;26.65;;;0.00;99.90;;;;;;5074372;28;20453;-85
2022/12/15 15:19:56;;;;;;;44.58;24.42;;;0.00;99.90;;;;;;5073688;28;20254;-85